الصفحة الرئيسية
METAR-TAF:

METAR-TAF

مطار :

كوراساو, جزر الأنتيل الهولندية

دائرة عرض: 12-12N, خط طول: 068-58W, ارتفاع: 9 متر

مراقبة الطقس الحالي

تاريخ ووقت الإصدار 52 دقيقة قبل الساعة 09:00UTC
ريح 10 عقدة من الشرق/الجنوب الشرقي
درجة الحرارة 26°درجة مئوية
الرطوبة 79%
ضغط 1014 hPa
الرؤية 10 كم أو أكثر

METAR: TNCC 140900Z AUTO 11010KT 9999 NCD 26/22 Q1014

زمن: 05:52 (09:52 UTC)

توقعات

تاريخ ووقت الإصدار 6ساعات و 7 دقيقة قبل الساعة 03:45UTC
التوقعات صالحة من14 الساعة 06 UTC إلى 15 الساعة 06 UTC
ريح 10 عقدة من الشرق/الجنوب الشرقي
الرؤية 10 كم أو أكثر
غيوم قليلة على ارتفاع 1800 قدم
أصبح
من 14 الساعة 11 UTC إلى 14 الساعة 13 UTC
ريح 15 عقدة من الشرق/الجنوب الشرقي تتزايد حتى 25 عقدة
مؤقت
من 15 الساعة 04 UTC إلى 15 الساعة 06 UTC
غيوم مفككة على ارتفاع 1500 قدم

TAF: TNCC 140345Z 1406/1506 11010KT 9999 FEW018 BECMG 1411/1413 12015G25KT TEMPO 1504/1506 BKN015

أرصاد الطقس والتوقعات من أكثر من 4000 مطار (تقارير الطقس للمطار METAR والتنبؤ بالطقس بالمطارTAF).

المحطات المتاحة هي النقط الصفراء والحمراء على الخريطة.

حرك المؤشر فوق النقطة لمعرفة اسم المحطة.

ثم انقر لمعرفة أرصاد وتوقعات الطقس.

لتغيير الخارطة: اضغط على الأزرار الخضراء مع رمز الصليب الأسود للتكبير. على الزر الأخضر مع شرطة للتصغير، أو على الأسهم الخضراء للخرائط المجاورة.


METAR-TAF: